Time;durP1;ratioP1;P1;durP2;ratioP2;P2;SDS_P1;SDS_P2;PMS_P1;PMS_P2;Temp;Humidity;BMP_temperature;BMP_pressure;BME280_temperature;BME280_humidity;BME280_pressure;Samples;Min_cycle;Max_cycle;Signal;HPM_P1;HPM_P2
2022/01/02 00:02:15;;;;;;;15.40;12.43;;;;;;;5.56;100.00;98760.31;5079930;28;20188;-72
2022/01/02 00:04:49;;;;;;;16.77;11.97;;;;;;;5.55;100.00;98750.72;5079904;28;20200;-72
2022/01/02 00:07:20;;;;;;;15.00;11.60;;;;;;;5.49;100.00;98765.44;5079569;28;20635;-71
2022/01/02 00:09:51;;;;;;;16.00;11.43;;;;;;;5.45;100.00;98758.84;5079853;28;20200;-72
2022/01/02 00:12:21;;;;;;;15.87;11.00;;;;;;;5.42;100.00;98758.38;5079621;28;20209;-72
2022/01/02 00:14:48;;;;;;;15.07;10.50;;;;;;;5.44;100.00;98764.28;5077322;28;20196;-71
2022/01/02 00:17:17;;;;;;;14.47;11.07;;;;;;;5.47;100.00;98758.69;5079399;28;20506;-72
2022/01/02 00:19:52;;;;;;;15.60;12.20;;;;;;;5.45;100.00;98763.28;5079565;28;20200;-72
2022/01/02 00:22:24;;;;;;;14.57;11.33;;;;;;;5.46;100.00;98762.28;5079622;28;20180;-72
2022/01/02 00:24:51;;;;;;;15.80;11.73;;;;;;;5.43;100.00;98734.47;5079695;28;20216;-72
2022/01/02 00:27:19;;;;;;;14.40;10.60;;;;;;;5.44;100.00;98735.28;5077468;28;20227;-72
2022/01/02 00:29:45;;;;;;;16.57;10.63;;;;;;;5.44;100.00;98741.41;5058877;28;20192;-71
2022/01/02 00:32:13;;;;;;;12.77;10.73;;;;;;;5.47;100.00;98751.59;5059402;28;20232;-72
2022/01/02 00:34:41;;;;;;;12.80;9.93;;;;;;;5.38;100.00;98751.81;5058771;28;20196;-72
2022/01/02 00:37:08;;;;;;;13.97;10.83;;;;;;;5.33;100.00;98747.03;5059104;28;20671;-72
2022/01/02 00:39:35;;;;;;;15.20;10.70;;;;;;;5.41;100.00;98751.44;5059059;28;20228;-72
2022/01/02 00:42:08;;;;;;;12.27;10.37;;;;;;;5.31;100.00;98756.09;5058677;28;20209;-72
2022/01/02 00:45:05;;;;;;;11.90;9.73;;;;;;;5.27;100.00;98750.34;5059966;28;20208;-72
2022/01/02 00:47:38;;;;;;;11.77;9.93;;;;;;;5.27;100.00;98742.44;5057779;28;20201;-72
2022/01/02 00:50:31;;;;;;;14.67;9.80;;;;;;;5.30;100.00;98746.53;5058759;28;20202;-72
2022/01/02 00:52:59;;;;;;;14.83;10.47;;;;;;;5.31;100.00;98745.53;5056710;28;20232;-72
2022/01/02 00:55:26;;;;;;;12.40;9.77;;;;;;;5.32;100.00;98734.00;5058454;28;20656;-72
2022/01/02 00:58:00;;;;;;;13.03;10.23;;;;;;;5.33;100.00;98738.31;5058904;28;20190;-72
2022/01/02 01:00:28;;;;;;;14.53;10.87;;;;;;;5.37;100.00;98739.59;5059737;28;20201;-72
2022/01/02 01:02:57;;;;;;;12.73;9.93;;;;;;;5.36;100.00;98735.31;5078859;28;20295;-72
2022/01/02 01:05:29;;;;;;;13.10;10.37;;;;;;;5.34;100.00;98724.13;5078906;28;20493;-72
2022/01/02 01:07:58;;;;;;;13.67;10.43;;;;;;;5.31;100.00;98727.09;5078527;28;20196;-72
2022/01/02 01:10:28;;;;;;;13.97;10.23;;;;;;;5.25;100.00;98725.13;5078504;28;20488;-72
2022/01/02 01:12:57;;;;;;;12.83;10.27;;;;;;;5.24;100.00;98720.88;5078462;28;20208;-72
2022/01/02 01:15:26;;;;;;;12.23;10.10;;;;;;;5.18;100.00;98716.25;5078372;28;20272;-72
2022/01/02 01:17:55;;;;;;;15.77;11.23;;;;;;;5.19;100.00;98712.63;5070770;28;20202;-72
2022/01/02 01:20:22;;;;;;;15.07;10.90;;;;;;;5.19;100.00;98710.81;5058444;28;20201;-72
2022/01/02 01:22:50;;;;;;;14.17;10.57;;;;;;;5.27;100.00;98702.06;5058249;28;20196;-72
2022/01/02 01:25:19;;;;;;;13.40;11.00;;;;;;;5.25;100.00;98701.41;5057884;28;20581;-72
2022/01/02 01:27:48;;;;;;;14.80;11.30;;;;;;;5.26;100.00;98695.97;5058898;28;20283;-72
2022/01/02 01:30:16;;;;;;;16.10;10.57;;;;;;;5.23;100.00;98695.47;5058084;28;20206;-72
2022/01/02 01:32:44;;;;;;;13.43;10.10;;;;;;;5.19;100.00;98689.72;5058190;28;20213;-71
2022/01/02 01:35:11;;;;;;;13.90;10.87;;;;;;;5.21;100.00;98693.00;5059247;28;20196;-72
2022/01/02 01:37:39;;;;;;;12.60;10.50;;;;;;;5.20;100.00;98698.47;5058133;28;20272;-72
2022/01/02 01:40:10;;;;;;;14.43;10.17;;;;;;;5.18;100.00;98687.25;5057931;28;20201;-72
2022/01/02 01:42:40;;;;;;;13.27;10.50;;;;;;;5.16;100.00;98695.31;5057659;28;20624;-72
2022/01/02 01:48:05;;;;;;;14.00;10.27;;;;;;;5.12;100.00;98690.59;5057979;28;20299;-72
2022/01/02 01:50:41;;;;;;;13.03;10.40;;;;;;;5.11;100.00;98687.09;5058030;28;20193;-71
2022/01/02 01:53:08;;;;;;;14.27;10.93;;;;;;;5.15;100.00;98687.63;5057617;28;20570;-71
2022/01/02 01:55:37;;;;;;;15.43;11.23;;;;;;;5.04;100.00;98686.16;5057748;28;20225;-72
2022/01/02 01:58:06;;;;;;;13.23;10.13;;;;;;;5.00;100.00;98678.75;5058237;28;20228;-71
2022/01/02 02:00:34;;;;;;;12.37;9.87;;;;;;;5.01;100.00;98690.91;5057800;28;20205;-71
2022/01/02 02:03:01;;;;;;;12.07;10.40;;;;;;;4.99;100.00;98683.22;5065789;28;20234;-72
2022/01/02 02:05:27;;;;;;;12.63;10.13;;;;;;;5.02;100.00;98682.06;5077145;28;20256;-71
2022/01/02 02:07:54;;;;;;;13.40;10.77;;;;;;;5.00;100.00;98682.22;5077229;28;20584;-72
2022/01/02 02:10:26;;;;;;;13.63;10.70;;;;;;;5.03;100.00;98665.25;5077446;28;20189;-72
2022/01/02 02:12:55;;;;;;;16.57;11.07;;;;;;;5.01;100.00;98669.84;5077377;28;20216;-72
2022/01/02 02:15:22;;;;;;;11.90;9.63;;;;;;;4.95;100.00;98662.63;5077113;28;20583;-72
2022/01/02 02:17:50;;;;;;;12.93;9.63;;;;;;;4.90;100.00;98663.16;5077338;28;20262;-71
2022/01/02 02:20:24;;;;;;;11.97;10.67;;;;;;;4.89;100.00;98663.31;5075467;28;20252;-71
2022/01/02 02:22:55;;;;;;;11.93;10.10;;;;;;;4.80;100.00;98659.84;5077169;28;20189;-72
2022/01/02 02:25:29;;;;;;;14.37;11.17;;;;;;;4.76;100.00;98655.09;5075634;28;20192;-72
2022/01/02 02:28:04;;;;;;;13.57;10.53;;;;;;;4.76;100.00;98649.84;5077189;28;20189;-72
2022/01/02 02:30:32;;;;;;;12.67;10.00;;;;;;;4.72;100.00;98652.00;5077283;28;20211;-72
2022/01/02 02:33:01;;;;;;;14.07;10.50;;;;;;;4.71;100.00;98641.63;5077067;28;20272;-71
2022/01/02 02:35:30;;;;;;;13.80;10.00;;;;;;;4.74;100.00;98634.19;5074597;28;20227;-72
2022/01/02 02:37:57;;;;;;;12.33;10.33;;;;;;;4.67;100.00;98630.59;5057138;28;20189;-72
2022/01/02 02:40:27;;;;;;;14.03;10.53;;;;;;;4.69;100.00;98627.78;5056695;28;20204;-72
2022/01/02 02:42:59;;;;;;;13.50;10.10;;;;;;;4.71;100.00;98638.97;5056564;28;20205;-72
2022/01/02 02:51:24;;;;;;;12.93;10.17;;;;;;;4.66;100.00;98622.88;5056356;28;20219;-72
2022/01/02 02:53:53;;;;;;;13.00;9.37;;;;;;;4.67;100.00;98612.16;5073213;28;20345;-72
2022/01/02 02:56:22;;;;;;;11.57;9.90;;;;;;;4.71;100.00;98610.00;5076803;28;20229;-72
2022/01/02 02:58:55;;;;;;;13.03;10.33;;;;;;;4.74;100.00;98604.41;5076195;28;20201;-71
2022/01/02 03:01:23;;;;;;;13.73;10.70;;;;;;;4.68;100.00;98599.81;5076793;28;20188;-72
2022/01/02 03:03:51;;;;;;;13.00;9.47;;;;;;;4.69;100.00;98594.38;5076637;28;20207;-72
2022/01/02 03:06:19;;;;;;;11.73;9.80;;;;;;;4.70;100.00;98592.56;5073592;28;20281;-72
2022/01/02 03:08:47;;;;;;;12.67;8.90;;;;;;;4.70;100.00;98592.56;5056494;28;20601;-69
2022/01/02 03:11:17;;;;;;;11.77;9.17;;;;;;;4.61;100.00;98583.84;5057091;28;20197;-68
2022/01/02 03:13:45;;;;;;;11.60;9.13;;;;;;;4.68;100.00;98581.38;5056955;28;20209;-68
2022/01/02 03:16:13;;;;;;;11.20;9.50;;;;;;;4.73;100.00;98581.69;5056449;28;20648;-69
2022/01/02 03:18:40;;;;;;;11.63;9.13;;;;;;;4.67;100.00;98579.72;5056828;28;20189;-68
2022/01/02 03:21:07;;;;;;;10.23;8.20;;;;;;;4.66;100.00;98580.72;5065089;28;20211;-68
2022/01/02 03:23:33;;;;;;;12.13;8.73;;;;;;;4.65;100.00;98576.47;5077350;28;20220;-68
2022/01/02 03:26:00;;;;;;;10.13;9.03;;;;;;;4.63;100.00;98567.88;5077228;28;20550;-69
2022/01/02 03:28:27;;;;;;;10.33;8.53;;;;;;;4.63;100.00;98571.34;5065037;28;20207;-68
2022/01/02 03:30:54;;;;;;;12.83;9.00;;;;;;;4.62;100.00;98563.63;5056131;28;20193;-68
2022/01/02 03:33:20;;;;;;;10.73;8.73;;;;;;;4.61;100.00;98568.06;5056447;28;20260;-69
2022/01/02 03:35:47;;;;;;;10.43;8.30;;;;;;;4.61;100.00;98559.34;5056615;28;20228;-69
2022/01/02 03:38:14;;;;;;;8.93;8.03;;;;;;;4.65;100.00;98565.94;5057765;28;20212;-69
2022/01/02 03:40:40;;;;;;;10.80;8.03;;;;;;;4.56;100.00;98572.22;5056315;28;20201;-68
2022/01/02 03:43:07;;;;;;;10.57;8.03;;;;;;;4.51;100.00;98569.22;5056367;28;20213;-68
2022/01/02 03:45:34;;;;;;;9.93;8.13;;;;;;;4.49;100.00;98565.97;5056721;28;20221;-68
2022/01/02 03:48:00;;;;;;;9.20;8.20;;;;;;;4.46;100.00;98561.03;5056743;28;20205;-68
2022/01/02 03:50:27;;;;;;;8.97;7.67;;;;;;;4.50;100.00;98554.44;5056902;28;20205;-69
2022/01/02 03:52:53;;;;;;;10.00;8.23;;;;;;;4.58;100.00;98551.78;5073394;28;20220;-68
2022/01/02 03:55:21;;;;;;;9.30;7.40;;;;;;;4.59;100.00;98556.88;5076823;28;20209;-68
2022/01/02 03:57:47;;;;;;;9.40;7.47;;;;;;;4.54;100.00;98547.84;5076385;28;20199;-68
2022/01/02 04:00:15;;;;;;;10.17;8.10;;;;;;;4.50;100.00;98542.09;5076607;28;20205;-68
2022/01/02 04:02:43;;;;;;;8.53;7.07;;;;;;;4.57;100.00;98544.88;5076693;28;20196;-68
2022/01/02 04:05:12;;;;;;;9.47;7.77;;;;;;;4.52;100.00;98542.75;5076412;28;20205;-68
2022/01/02 04:07:39;;;;;;;10.17;8.00;;;;;;;4.52;100.00;98537.47;5072046;28;20263;-69
2022/01/02 04:10:08;;;;;;;8.93;7.60;;;;;;;4.50;100.00;98546.53;5058489;28;20212;-68
2022/01/02 04:12:36;;;;;;;9.13;7.90;;;;;;;4.42;100.00;98543.91;5059892;28;20217;-68
2022/01/02 04:15:04;;;;;;;7.90;6.83;;;;;;;4.49;100.00;98539.63;5059836;28;20284;-68
2022/01/02 04:17:32;;;;;;;9.77;7.67;;;;;;;4.46;100.00;98532.06;5060032;28;20226;-69
2022/01/02 04:19:58;;;;;;;9.70;7.63;;;;;;;4.36;100.00;98519.09;5060005;28;20207;-68
2022/01/02 04:22:24;;;;;;;9.77;7.40;;;;;;;4.35;100.00;98527.16;5060328;28;20197;-68
2022/01/02 04:24:51;;;;;;;9.77;7.20;;;;;;;4.25;100.00;98523.91;5073500;28;20223;-68
2022/01/02 04:27:19;;;;;;;9.40;7.80;;;;;;;4.18;100.00;98526.38;5079721;28;20221;-68
2022/01/02 04:29:46;;;;;;;11.00;8.10;;;;;;;4.08;100.00;98538.06;5079818;28;20211;-69
2022/01/02 04:32:13;;;;;;;8.80;7.13;;;;;;;4.28;100.00;98524.38;5079549;28;20201;-68
2022/01/02 04:34:40;;;;;;;9.77;7.80;;;;;;;4.36;100.00;98515.66;5079805;28;20217;-68
2022/01/02 04:37:07;;;;;;;8.97;8.03;;;;;;;4.38;100.00;98524.22;5079503;28;20220;-68
2022/01/02 04:39:34;;;;;;;9.90;8.23;;;;;;;4.36;100.00;98516.47;5079420;28;20212;-68
2022/01/02 04:42:01;;;;;;;8.97;7.73;;;;;;;4.38;100.00;98519.75;5060685;28;20228;-68
2022/01/02 04:44:28;;;;;;;8.53;7.27;;;;;;;4.38;100.00;98518.94;5058990;28;20204;-68
2022/01/02 04:46:54;;;;;;;11.30;8.17;;;;;;;4.25;100.00;98524.72;5059346;28;20228;-68
2022/01/02 04:49:20;;;;;;;10.37;8.23;;;;;;;4.37;100.00;98517.28;5058966;28;20495;-69
2022/01/02 04:51:47;;;;;;;9.80;7.80;;;;;;;4.37;100.00;98512.00;5059189;28;20509;-69
2022/01/02 04:54:14;;;;;;;9.33;7.37;;;;;;;4.31;100.00;98496.91;5059143;28;20221;-69
2022/01/02 04:56:41;;;;;;;9.10;7.80;;;;;;;4.31;100.00;98499.53;5059620;28;20225;-68
2022/01/02 04:59:08;;;;;;;9.83;8.13;;;;;;;4.39;100.00;98491.63;5058736;28;20206;-68
2022/01/02 05:01:34;;;;;;;8.73;7.70;;;;;;;4.44;100.00;98489.31;5059054;28;20190;-68
2022/01/02 05:04:01;;;;;;;8.97;8.07;;;;;;;4.47;100.00;98488.97;5059059;28;20247;-68
2022/01/02 05:06:27;;;;;;;10.53;7.97;;;;;;;4.50;100.00;98493.88;5071517;28;20231;-68
2022/01/02 05:08:54;;;;;;;9.10;7.80;;;;;;;4.54;100.00;98488.13;5078711;28;20208;-68
2022/01/02 05:11:20;;;;;;;8.53;7.53;;;;;;;4.57;100.00;98492.22;5078717;28;20201;-68
2022/01/02 05:13:47;;;;;;;9.17;6.93;;;;;;;4.70;100.00;98497.75;5076810;28;20636;-69
2022/01/02 05:16:13;;;;;;;7.70;6.90;;;;;;;4.61;100.00;98483.78;5078590;28;20231;-68
2022/01/02 05:18:40;;;;;;;7.53;6.57;;;;;;;4.56;100.00;98472.16;5078606;28;20193;-68
2022/01/02 05:21:06;;;;;;;8.97;7.33;;;;;;;4.54;100.00;98477.59;5078030;28;20200;-68
2022/01/02 05:23:33;;;;;;;9.00;7.17;;;;;;;4.52;100.00;98474.28;5078663;28;20185;-68
2022/01/02 05:25:59;;;;;;;9.07;6.80;;;;;;;4.52;100.00;98468.22;5078462;28;20220;-68
2022/01/02 05:28:26;;;;;;;10.03;7.70;;;;;;;4.50;100.00;98468.38;5078384;28;20592;-68
2022/01/02 05:30:52;;;;;;;8.53;6.90;;;;;;;4.57;100.00;98469.31;5071771;28;20197;-68
2022/01/02 05:33:19;;;;;;;8.83;7.37;;;;;;;4.54;100.00;98463.59;5058518;28;20206;-68
2022/01/02 05:35:45;;;;;;;9.90;7.63;;;;;;;4.54;100.00;98476.75;5058517;28;20237;-69
2022/01/02 05:38:11;;;;;;;7.70;6.87;;;;;;;4.53;100.00;98462.75;5058437;28;20193;-68
2022/01/02 05:40:38;;;;;;;7.60;6.80;;;;;;;4.55;100.00;98465.22;5058431;28;20204;-68
2022/01/02 05:43:06;;;;;;;7.93;6.97;;;;;;;4.61;100.00;98461.94;5058340;28;20216;-68
2022/01/02 05:45:33;;;;;;;7.27;6.33;;;;;;;4.64;100.00;98458.94;5058168;28;20217;-68
2022/01/02 05:48:02;;;;;;;8.93;6.60;;;;;;;4.73;100.00;98455.25;5067891;28;20197;-68
2022/01/02 05:50:29;;;;;;;7.20;6.10;;;;;;;4.73;100.00;98460.53;5078287;28;20200;-68
2022/01/02 05:52:55;;;;;;;7.93;6.40;;;;;;;4.73;100.00;98445.56;5077791;28;20608;-68
2022/01/02 05:55:21;;;;;;;8.00;6.30;;;;;;;4.81;100.00;98444.69;5077679;28;20189;-68
2022/01/02 05:57:48;;;;;;;7.77;6.73;;;;;;;4.81;100.00;98452.59;5077687;28;20610;-69
2022/01/02 06:00:14;;;;;;;8.17;6.60;;;;;;;4.77;99.81;98446.03;5077581;28;20215;-68
2022/01/02 06:02:41;;;;;;;7.07;6.23;;;;;;;4.82;100.00;98448.97;5077704;28;20196;-68
2022/01/02 06:05:08;;;;;;;10.50;6.20;;;;;;;4.79;99.82;98444.88;5064386;28;20206;-68
2022/01/02 06:07:35;;;;;;;6.43;5.77;;;;;;;4.79;99.68;98441.44;5057608;28;20208;-68
2022/01/02 06:10:04;;;;;;;6.37;5.67;;;;;;;4.79;99.94;98438.78;5057403;28;20616;-69
2022/01/02 06:12:31;;;;;;;6.47;5.70;;;;;;;4.78;99.52;98437.13;5057498;28;20205;-68
2022/01/02 06:14:57;;;;;;;6.57;5.60;;;;;;;4.75;98.71;98430.41;5057690;28;20559;-68
2022/01/02 06:17:23;;;;;;;6.73;5.60;;;;;;;4.72;98.29;98433.41;5057524;28;20229;-68
2022/01/02 06:19:50;;;;;;;6.53;5.83;;;;;;;4.73;99.28;98428.94;5057671;28;20190;-68
2022/01/02 06:22:17;;;;;;;6.67;5.60;;;;;;;4.71;98.39;98431.72;5076495;28;20519;-68
2022/01/02 06:24:43;;;;;;;5.90;5.23;;;;;;;4.70;97.74;98432.72;5077444;28;20188;-68
2022/01/02 06:27:09;;;;;;;6.40;5.77;;;;;;;4.72;98.13;98427.28;5077482;28;20220;-68
2022/01/02 06:29:36;;;;;;;7.07;5.43;;;;;;;4.73;98.50;98418.41;5078168;28;20532;-68
2022/01/02 06:32:02;;;;;;;6.63;5.87;;;;;;;4.64;96.56;98429.97;5077236;28;20637;-68
2022/01/02 06:34:29;;;;;;;6.77;5.93;;;;;;;4.64;97.77;98425.53;5076751;28;20216;-68
2022/01/02 06:36:55;;;;;;;6.23;5.50;;;;;;;4.60;98.01;98423.41;5075260;28;20636;-68
2022/01/02 06:39:21;;;;;;;7.13;5.53;;;;;;;4.65;97.53;98421.09;5077431;28;20576;-68
2022/01/02 06:41:48;;;;;;;6.80;5.30;;;;;;;4.64;96.99;98422.06;5077133;28;20612;-69
2022/01/02 06:44:14;;;;;;;5.90;5.23;;;;;;;4.63;97.08;98425.69;5075092;28;20509;-68
2022/01/02 06:46:40;;;;;;;6.27;5.67;;;;;;;4.59;96.65;98429.66;5065020;28;20524;-68
2022/01/02 06:49:07;;;;;;;7.67;5.97;;;;;;;4.61;96.33;98425.06;5077202;28;20197;-68
2022/01/02 06:51:33;;;;;;;7.33;5.30;;;;;;;4.62;97.83;98426.69;5077105;28;20200;-68
2022/01/02 06:53:59;;;;;;;6.07;5.23;;;;;;;4.62;97.93;98424.88;5076898;28;20643;-68
2022/01/02 06:56:26;;;;;;;6.93;5.30;;;;;;;4.64;97.21;98417.63;5060913;28;20228;-68
2022/01/02 06:58:52;;;;;;;7.07;5.93;;;;;;;4.59;97.69;98409.44;5057101;28;20186;-68
2022/01/02 07:01:18;;;;;;;6.77;5.23;;;;;;;4.55;98.53;98404.66;5066131;28;20196;-68
2022/01/02 07:03:44;;;;;;;6.27;5.67;;;;;;;4.58;96.88;98407.81;5076799;28;20572;-68
2022/01/02 07:06:11;;;;;;;5.90;5.30;;;;;;;4.56;97.56;98399.22;5077975;28;20224;-71
2022/01/02 07:08:38;;;;;;;7.57;5.80;;;;;;;4.58;96.81;98397.25;5077684;28;20192;-71
2022/01/02 07:11:05;;;;;;;6.10;5.47;;;;;;;4.60;97.81;98390.00;5078048;28;20525;-72
2022/01/02 07:13:31;;;;;;;6.77;5.13;;;;;;;4.69;97.12;98396.88;5077539;28;20217;-72
2022/01/02 07:15:58;;;;;;;6.60;5.90;;;;;;;4.67;97.84;98414.66;5077839;28;20224;-72
2022/01/02 07:18:24;;;;;;;6.77;4.90;;;;;;;4.74;96.49;98415.59;5061375;28;20201;-72
2022/01/02 07:20:50;;;;;;;5.83;5.27;;;;;;;4.71;96.83;98408.03;5057792;28;20189;-71
2022/01/02 07:23:17;;;;;;;5.77;5.17;;;;;;;4.71;96.53;98405.41;5057547;28;20204;-71
2022/01/02 07:25:43;;;;;;;5.97;5.10;;;;;;;4.68;96.39;98408.41;5057391;28;20648;-72
2022/01/02 07:28:09;;;;;;;7.40;5.37;;;;;;;4.76;96.29;98399.63;5057908;28;20204;-72
2022/01/02 07:30:36;;;;;;;5.70;4.80;;;;;;;4.86;95.60;98392.31;5057462;28;20584;-72
2022/01/02 07:33:02;;;;;;;6.27;5.07;;;;;;;4.82;96.90;98389.22;5059939;28;20197;-72
2022/01/02 07:35:32;;;;;;;6.23;4.87;;;;;;;4.80;97.91;98390.38;5077726;28;20228;-72
2022/01/02 07:37:59;;;;;;;5.80;4.83;;;;;;;4.81;97.13;98392.84;5063252;28;20530;-71
2022/01/02 07:40:26;;;;;;;5.40;4.77;;;;;;;4.91;96.00;98392.59;5077244;28;20510;-72
2022/01/02 07:42:53;;;;;;;5.60;5.00;;;;;;;4.98;95.57;98402.25;5070091;28;20616;-72
2022/01/02 07:45:20;;;;;;;7.27;5.10;;;;;;;4.88;95.81;98414.03;5060545;28;20197;-72
2022/01/02 07:47:47;;;;;;;7.10;5.40;;;;;;;4.92;95.32;98405.59;5070379;28;20184;-73
2022/01/02 07:50:13;;;;;;;6.97;4.83;;;;;;;4.94;95.65;98411.53;5071361;28;20201;-72
2022/01/02 07:52:39;;;;;;;5.90;5.10;;;;;;;4.94;95.37;98398.38;5061551;28;20197;-70
2022/01/02 07:55:06;;;;;;;5.43;4.67;;;;;;;5.04;95.02;98400.75;5061965;28;20221;-72
2022/01/02 07:57:32;;;;;;;6.97;5.10;;;;;;;4.96;96.54;98403.44;5061241;28;20185;-71
2022/01/02 07:59:59;;;;;;;6.67;5.23;;;;;;;5.02;95.29;98403.56;5061171;28;20197;-72
2022/01/02 08:02:25;;;;;;;6.27;4.97;;;;;;;5.07;94.54;98398.56;5061045;28;20208;-72
2022/01/02 08:04:51;;;;;;;5.23;4.60;;;;;;;5.16;94.58;98401.97;5061144;28;20485;-71
2022/01/02 08:07:18;;;;;;;5.60;4.97;;;;;;;5.12;94.64;98403.31;5074460;28;20221;-71
2022/01/02 08:09:44;;;;;;;5.63;5.03;;;;;;;5.15;94.89;98403.00;5080910;28;20208;-71
2022/01/02 08:12:10;;;;;;;5.30;4.80;;;;;;;5.18;94.93;98402.63;5081034;28;20207;-72
2022/01/02 08:14:37;;;;;;;6.93;4.77;;;;;;;5.20;95.16;98400.63;5080416;28;20634;-71
2022/01/02 08:17:03;;;;;;;5.83;4.73;;;;;;;5.22;95.01;98403.91;5081095;28;20229;-71
2022/01/02 08:19:30;;;;;;;6.13;4.97;;;;;;;5.23;95.72;98400.25;5080852;28;20189;-72
2022/01/02 08:21:56;;;;;;;6.17;4.87;;;;;;;5.27;94.79;98396.28;5079501;28;20205;-71
2022/01/02 08:24:22;;;;;;;6.80;5.40;;;;;;;5.30;95.10;98388.03;5060484;28;20204;-72
2022/01/02 08:26:49;;;;;;;5.00;4.53;;;;;;;5.41;94.79;98390.22;5060336;28;20232;-71
2022/01/02 08:29:15;;;;;;;5.63;4.80;;;;;;;5.51;95.15;98393.44;5060511;28;20217;-72
2022/01/02 08:31:41;;;;;;;5.10;4.60;;;;;;;5.63;94.42;98398.09;5060339;28;20190;-72
2022/01/02 08:34:08;;;;;;;5.03;4.50;;;;;;;5.94;91.33;98398.81;5060464;28;20228;-72
2022/01/02 08:36:34;;;;;;;6.63;4.50;;;;;;;6.06;89.89;98401.81;5063115;28;20220;-72
2022/01/02 08:39:00;;;;;;;4.80;4.30;;;;;;;5.95;89.72;98394.34;5080414;28;20200;-72
2022/01/02 08:41:27;;;;;;;5.53;4.20;;;;;;;6.09;89.76;98389.06;5080114;28;20213;-72
2022/01/02 08:43:53;;;;;;;5.33;4.20;;;;;;;6.09;89.94;98388.25;5077864;28;20193;-72
2022/01/02 08:46:19;;;;;;;5.63;4.30;;;;;;;6.11;90.22;98397.63;5069107;28;20231;-72
2022/01/02 08:48:47;;;;;;;7.03;5.13;;;;;;;6.22;89.90;98398.97;5080045;28;20599;-72
2022/01/02 08:51:13;;;;;;;5.63;4.40;;;;;;;6.21;90.89;98389.44;5077054;28;20520;-72
2022/01/02 08:53:40;;;;;;;4.97;4.20;;;;;;;6.23;89.22;98390.88;5079790;28;20495;-72
2022/01/02 08:56:07;;;;;;;5.07;4.50;;;;;;;6.30;88.69;98393.59;5079221;28;20224;-72
2022/01/02 08:58:33;;;;;;;4.93;4.43;;;;;;;6.38;88.46;98396.97;5080259;28;20208;-72
2022/01/02 09:01:00;;;;;;;6.37;4.80;;;;;;;6.33;87.83;98390.59;5079887;28;20215;-72
2022/01/02 09:03:27;;;;;;;6.30;4.77;;;;;;;6.33;88.07;98407.25;5064664;28;20239;-72
2022/01/02 09:05:53;;;;;;;4.87;4.37;;;;;;;6.33;87.58;98407.25;5059726;28;20214;-72
2022/01/02 09:08:20;;;;;;;5.67;4.77;;;;;;;6.42;88.20;98410.63;5060581;28;20205;-72
2022/01/02 09:10:46;;;;;;;5.40;4.67;;;;;;;6.55;87.64;98413.41;5059934;28;20284;-72
2022/01/02 09:13:12;;;;;;;4.70;4.20;;;;;;;6.57;88.64;98406.13;5059882;28;20193;-73
2022/01/02 09:15:39;;;;;;;4.80;4.30;;;;;;;6.86;87.43;98406.06;5059693;28;20532;-72
2022/01/02 09:18:05;;;;;;;5.27;4.67;;;;;;;6.77;87.01;98405.34;5059799;28;20634;-72
2022/01/02 09:20:33;;;;;;;6.37;5.33;;;;;;;6.90;87.01;98396.75;5060093;28;20488;-72
2022/01/02 09:23:00;;;;;;;5.10;4.60;;;;;;;7.08;84.11;98392.69;5059631;28;20189;-72
2022/01/02 09:25:26;;;;;;;5.03;4.43;;;;;;;6.99;85.13;98390.34;5072724;28;20201;-71
2022/01/02 09:27:53;;;;;;;4.87;4.47;;;;;;;6.97;84.75;98406.38;5079502;28;20185;-72
2022/01/02 09:30:19;;;;;;;4.70;4.30;;;;;;;7.03;85.70;98399.53;5079710;28;20484;-72
2022/01/02 09:32:46;;;;;;;5.03;4.47;;;;;;;7.07;85.85;98398.16;5079077;28;20212;-71
2022/01/02 09:35:13;;;;;;;4.93;4.30;;;;;;;7.15;85.00;98392.75;5079379;28;20548;-72
2022/01/02 09:37:39;;;;;;;6.47;4.60;;;;;;;7.23;85.07;98389.94;5079214;28;20491;-72
2022/01/02 09:40:07;;;;;;;5.73;5.10;;;;;;;7.19;85.50;98402.75;5066249;28;20295;-72
2022/01/02 09:42:35;;;;;;;4.77;4.30;;;;;;;7.13;83.27;98410.59;5078370;28;20212;-73
2022/01/02 09:45:04;;;;;;;5.17;4.43;;;;;;;7.12;84.85;98415.09;5097752;28;20203;-70
2022/01/02 09:47:32;;;;;;;6.03;4.90;;;;;;;7.25;85.30;98412.59;5077074;28;20227;-70
2022/01/02 09:50:04;;;;;;;5.07;4.57;;;;;;;7.24;85.04;98415.41;5077398;28;20291;-70
2022/01/02 09:52:30;;;;;;;5.37;4.70;;;;;;;7.35;83.38;98399.84;5077584;28;20216;-70
2022/01/02 09:54:57;;;;;;;5.20;4.70;;;;;;;7.34;83.64;98402.69;5077226;28;20209;-70
2022/01/02 09:57:23;;;;;;;5.70;4.37;;;;;;;7.40;84.87;98402.75;5076876;28;20648;-70
2022/01/02 09:59:49;;;;;;;5.30;4.80;;;;;;;7.42;83.52;98399.91;5059989;28;20209;-70
2022/01/02 10:02:16;;;;;;;7.83;4.90;;;;;;;7.45;83.57;98384.47;5070562;28;20197;-71
2022/01/02 10:04:43;;;;;;;6.00;4.67;;;;;;;7.47;83.57;98381.63;5077065;28;20212;-70
2022/01/02 10:07:29;;;;;;;5.03;4.50;;;;;;;7.59;82.35;98380.09;5076945;28;20225;-70
2022/01/02 10:09:55;;;;;;;5.30;4.60;;;;;;;7.56;84.14;98377.84;5076886;28;20376;-70
2022/01/02 10:12:32;;;;;;;5.93;4.73;;;;;;;7.66;82.52;98387.09;5076987;28;20223;-70
2022/01/02 10:15:18;;;;;;;5.30;4.73;;;;;;;7.85;81.67;98390.88;5075222;28;20208;-71
2022/01/02 10:18:07;;;;;;;5.83;4.80;;;;;;;7.59;83.36;98380.09;5057009;28;20496;-70
2022/01/02 10:20:37;;;;;;;5.40;4.90;;;;;;;7.49;82.73;98371.66;5056899;28;20204;-70
2022/01/02 10:23:17;;;;;;;6.67;5.13;;;;;;;7.42;84.50;98366.31;5056512;28;20620;-70
2022/01/02 10:25:48;;;;;;;5.43;4.50;;;;;;;7.36;84.56;98374.22;5056620;28;20214;-70
2022/01/02 10:28:18;;;;;;;5.80;5.13;;;;;;;7.37;84.94;98378.50;5056632;28;20193;-71
2022/01/02 10:30:49;;;;;;;6.03;5.03;;;;;;;7.39;84.22;98368.53;5056558;28;20604;-71
2022/01/02 10:33:16;;;;;;;6.03;4.93;;;;;;;7.52;84.16;98368.66;5057105;28;20555;-70
2022/01/02 10:35:43;;;;;;;5.30;4.80;;;;;;;7.50;84.81;98363.53;5056152;28;20640;-70
2022/01/02 10:38:19;;;;;;;6.27;4.70;;;;;;;7.51;83.73;98362.53;5056176;28;20190;-70
2022/01/02 10:40:46;;;;;;;6.60;4.90;;;;;;;7.51;83.81;98340.56;5055949;28;20595;-70
2022/01/02 10:43:27;;;;;;;5.60;5.07;;;;;;;7.45;86.37;98331.56;5056223;28;20205;-70
2022/01/02 10:45:55;;;;;;;5.73;5.10;;;;;;;7.44;86.12;98331.75;5056269;28;20221;-70
2022/01/02 10:48:49;;;;;;;5.13;4.63;;;;;;;7.44;85.17;98329.09;5056179;28;20205;-70
2022/01/02 10:51:17;;;;;;;6.20;5.13;;;;;;;7.49;86.17;98332.00;5078629;28;20205;-70
2022/01/02 10:53:58;;;;;;;5.60;5.07;;;;;;;7.52;85.28;98318.38;5086135;28;20193;-70
2022/01/02 10:56:30;;;;;;;6.40;4.97;;;;;;;7.60;85.44;98318.25;5077163;28;20232;-70
2022/01/02 10:58:59;;;;;;;6.83;5.30;;;;;;;7.64;85.04;98312.34;5076318;28;20203;-70
2022/01/02 11:01:25;;;;;;;6.50;4.60;;;;;;;7.74;85.82;98314.66;5076238;28;20189;-70
2022/01/02 11:03:53;;;;;;;5.70;4.70;;;;;;;7.87;85.23;98325.34;5075785;28;20207;-70
2022/01/02 11:06:29;;;;;;;5.60;4.83;;;;;;;7.93;84.31;98330.66;5071607;28;20229;-70
2022/01/02 11:08:59;;;;;;;7.40;5.23;;;;;;;7.96;84.12;98334.75;5055894;28;20212;-70
2022/01/02 11:11:26;;;;;;;5.07;4.57;;;;;;;7.99;84.20;98344.94;5055864;28;20200;-70
2022/01/02 11:13:52;;;;;;;5.73;4.93;;;;;;;8.01;84.29;98335.78;5056040;28;20280;-70
2022/01/02 11:16:19;;;;;;;5.83;5.30;;;;;;;7.96;83.14;98329.47;5055727;28;20231;-70
2022/01/02 11:18:47;;;;;;;5.23;4.73;;;;;;;7.90;84.16;98322.28;5056687;28;20193;-70
2022/01/02 11:21:15;;;;;;;5.90;5.30;;;;;;;7.93;84.85;98340.44;5060283;28;20208;-70
2022/01/02 11:23:45;;;;;;;6.27;5.00;;;;;;;7.97;83.76;98344.31;5060759;28;20205;-70
2022/01/02 11:26:19;;;;;;;6.33;5.30;;;;;;;8.12;84.17;98348.47;5059781;28;20611;-70
2022/01/02 11:28:50;;;;;;;5.70;5.17;;;;;;;8.18;84.51;98341.56;5058944;28;20515;-70
2022/01/02 11:31:31;;;;;;;6.83;5.57;;;;;;;8.29;83.97;98335.75;5060883;28;20212;-71
2022/01/02 11:33:58;;;;;;;6.63;5.50;;;;;;;8.28;84.12;98332.28;5059978;28;20216;-70
2022/01/02 11:36:34;;;;;;;6.57;5.53;;;;;;;8.51;83.58;98332.75;5059748;28;20307;-70
2022/01/02 11:39:11;;;;;;;6.57;5.37;;;;;;;8.49;83.15;98323.38;5059186;28;20565;-70
2022/01/02 11:41:42;;;;;;;7.97;5.63;;;;;;;8.41;84.48;98305.84;5074197;28;20211;-70
2022/01/02 11:44:21;;;;;;;7.37;5.13;;;;;;;8.38;84.61;98318.66;5079857;28;20226;-70
2022/01/02 11:46:56;;;;;;;7.33;5.93;;;;;;;8.29;84.27;98306.63;5079736;28;20221;-70
2022/01/02 11:49:44;;;;;;;6.83;5.90;;;;;;;8.30;84.24;98302.94;5079542;28;20242;-71